createdAt,value
2023-02-12T00:04:04.417Z,5.22
2023-02-12T00:09:06.332Z,5.25
2023-02-12T00:14:07.754Z,5.28
2023-02-12T00:19:09.734Z,5.27
2023-02-12T00:24:11.354Z,5.29
2023-02-12T00:29:12.908Z,5.23
2023-02-12T00:34:14.333Z,5.28
2023-02-12T00:39:15.917Z,5.23
2023-02-12T00:44:17.523Z,5.17
2023-02-12T00:49:19.039Z,5.21
2023-02-12T00:54:20.619Z,5.22
2023-02-12T00:59:23.363Z,5.24
2023-02-12T01:04:24.941Z,5.31
2023-02-12T01:09:26.617Z,5.20
2023-02-12T01:14:28.298Z,5.24
2023-02-12T01:19:29.858Z,5.26
2023-02-12T01:24:31.334Z,5.27
2023-02-12T01:29:32.997Z,5.31
2023-02-12T01:34:34.465Z,5.36
2023-02-12T01:39:36.200Z,5.31
2023-02-12T01:44:43.828Z,5.35
2023-02-12T01:49:48.149Z,5.21
2023-02-12T01:54:53.542Z,5.20
2023-02-12T01:59:59.056Z,5.26
2023-02-12T02:05:03.574Z,5.36
2023-02-12T02:10:05.674Z,5.34
2023-02-12T02:15:07.776Z,5.38
2023-02-12T02:20:46.311Z,5.41
2023-02-12T02:25:53.695Z,5.39
2023-02-12T02:31:09.266Z,5.33
2023-02-12T02:36:25.848Z,5.34
2023-02-12T02:41:57.488Z,5.17
2023-02-12T02:47:01.962Z,5.24
2023-02-12T02:52:09.614Z,5.29
2023-02-12T02:57:23.330Z,5.31
2023-02-12T03:02:29.756Z,5.38
2023-02-12T03:07:41.550Z,5.23
2023-02-12T03:12:55.435Z,5.28
2023-02-12T03:17:59.619Z,5.26
2023-02-12T03:23:07.125Z,5.27
2023-02-12T03:28:22.496Z,5.31
2023-02-12T03:33:35.732Z,5.36
2023-02-12T03:38:52.792Z,5.38
2023-02-12T03:44:04.113Z,5.37
2023-02-12T03:49:22.017Z,5.27
2023-02-12T03:54:23.462Z,5.35
2023-02-12T03:59:25.697Z,5.32
2023-02-12T04:04:28.430Z,5.29
2023-02-12T04:09:32.162Z,5.27
2023-02-12T04:14:49.772Z,5.31
2023-02-12T04:20:00.506Z,5.43
2023-02-12T04:25:26.635Z,5.45
2023-02-12T04:30:39.962Z,5.34
2023-02-12T04:35:55.299Z,5.32
2023-02-12T04:40:57.717Z,5.33
2023-02-12T04:45:59.439Z,5.37
2023-02-12T04:51:01.684Z,5.28
2023-02-12T04:56:03.442Z,5.36
2023-02-12T05:01:05.096Z,5.34
2023-02-12T05:06:08.580Z,5.29
2023-02-12T05:11:10.967Z,5.26
2023-02-12T05:16:12.446Z,5.30
2023-02-12T05:21:14.406Z,5.32
2023-02-12T05:26:19.079Z,5.24
2023-02-12T05:31:21.756Z,5.28
2023-02-12T05:36:24.613Z,5.32
2023-02-12T05:41:26.042Z,5.38
2023-02-12T05:46:27.722Z,5.32
2023-02-12T05:51:29.205Z,5.31
2023-02-12T05:56:33.153Z,5.33
2023-02-12T06:01:40.462Z,5.39
2023-02-12T06:06:42.458Z,5.31
2023-02-12T06:11:44.242Z,5.34
2023-02-12T06:16:47.962Z,5.26
2023-02-12T06:21:49.466Z,5.31
2023-02-12T06:26:51.741Z,5.42
2023-02-12T06:31:53.358Z,5.31
2023-02-12T06:36:55.033Z,5.32
2023-02-12T06:41:56.554Z,5.37
2023-02-12T06:46:58.002Z,5.30
2023-02-12T06:52:01.684Z,5.43
2023-02-12T06:57:05.001Z,5.47
2023-02-12T07:02:07.564Z,5.40
2023-02-12T07:07:09.022Z,5.34
2023-02-12T07:12:10.517Z,5.32
2023-02-12T07:17:11.893Z,5.27
2023-02-12T07:22:13.337Z,5.32
2023-02-12T07:27:15.150Z,5.39
2023-02-12T07:32:16.667Z,5.43
2023-02-12T07:37:18.122Z,5.53
2023-02-12T07:42:19.535Z,5.48
2023-02-12T07:47:21.083Z,5.53
2023-02-12T07:52:22.641Z,5.68
2023-02-12T07:57:24.148Z,5.69
2023-02-12T08:02:25.745Z,5.74
2023-02-12T08:07:27.307Z,5.99
2023-02-12T08:12:28.968Z,6.01
2023-02-12T08:17:30.507Z,6.10
2023-02-12T08:22:32.130Z,6.04
2023-02-12T08:27:33.653Z,6.14
2023-02-12T08:32:35.388Z,6.17
2023-02-12T08:37:37.081Z,6.18
2023-02-12T08:42:38.634Z,6.19
2023-02-12T08:47:40.247Z,6.31
2023-02-12T08:52:43.722Z,6.41
2023-02-12T08:57:45.531Z,6.37
2023-02-12T09:02:48.890Z,6.32
2023-02-12T09:07:53.582Z,6.42
2023-02-12T09:12:55.036Z,6.45
2023-02-12T09:17:56.786Z,6.54
2023-02-12T09:22:59.421Z,6.65
2023-02-12T09:28:04.003Z,6.69
2023-02-12T09:33:08.103Z,6.76
2023-02-12T09:38:09.854Z,6.80
2023-02-12T09:43:45.684Z,6.95
2023-02-12T09:49:01.913Z,7.04
2023-02-12T09:54:13.366Z,7.08
2023-02-12T09:59:27.922Z,7.00
2023-02-12T10:04:29.537Z,7.08
2023-02-12T10:10:12.152Z,7.19
2023-02-12T10:15:29.194Z,7.21
2023-02-12T10:20:41.508Z,7.28
2023-02-12T10:25:57.869Z,7.38
2023-02-12T10:31:06.268Z,7.40
2023-02-12T10:36:39.069Z,7.46
2023-02-12T10:41:49.631Z,7.51
2023-02-12T10:46:51.341Z,7.51
2023-02-12T10:52:01.439Z,7.54
2023-02-12T10:57:18.396Z,7.49
2023-02-12T11:02:26.795Z,7.47
2023-02-12T11:07:28.874Z,7.57
2023-02-12T11:12:35.995Z,7.59
2023-02-12T11:17:43.514Z,7.61
2023-02-12T11:22:52.151Z,7.65
2023-02-12T11:28:13.937Z,7.72
2023-02-12T11:33:23.826Z,7.74
2023-02-12T11:38:29.905Z,7.67
2023-02-12T11:43:34.021Z,7.70
2023-02-12T11:48:41.142Z,7.74
2023-02-12T11:53:47.441Z,7.77
2023-02-12T11:58:51.019Z,7.86
2023-02-12T12:04:04.977Z,7.68
2023-02-12T12:09:09.520Z,7.81
2023-02-12T12:14:29.533Z,7.74
2023-02-12T12:19:57.835Z,7.75
2023-02-12T12:25:24.245Z,7.97
2023-02-12T12:30:34.449Z,7.87
2023-02-12T12:36:08.281Z,7.94
2023-02-12T12:41:21.647Z,8.02
2023-02-12T12:46:41.892Z,8.10
2023-02-12T12:52:02.849Z,7.90
2023-02-12T12:57:04.290Z,8.12
2023-02-12T13:02:33.043Z,8.18
2023-02-12T13:07:34.507Z,8.21
2023-02-12T13:13:09.375Z,8.15
2023-02-12T13:18:31.087Z,8.10
2023-02-12T13:23:42.810Z,8.01
2023-02-12T13:28:49.783Z,8.08
2023-02-12T13:34:00.738Z,7.84
2023-02-12T13:39:18.510Z,8.10
2023-02-12T13:44:32.144Z,8.31
2023-02-12T13:49:45.617Z,8.37
2023-02-12T13:54:49.793Z,8.21
2023-02-12T13:59:56.076Z,8.18
2023-02-12T14:05:03.395Z,8.29
2023-02-12T14:10:05.388Z,8.46
2023-02-12T14:15:26.770Z,8.34
2023-02-12T14:20:36.449Z,8.13
2023-02-12T14:25:48.363Z,8.32
2023-02-12T14:31:15.893Z,8.03
2023-02-12T14:36:32.260Z,8.01
2023-02-12T14:41:36.904Z,8.03
2023-02-12T14:46:38.583Z,8.28
2023-02-12T14:51:46.849Z,8.41
2023-02-12T14:56:50.462Z,8.50
2023-02-12T15:01:53.458Z,8.08
2023-02-12T15:07:05.028Z,8.18
2023-02-12T15:12:15.554Z,8.32
2023-02-12T15:17:27.707Z,8.19
2023-02-12T15:22:36.115Z,8.00
2023-02-12T15:27:41.496Z,7.99
2023-02-12T15:32:43.704Z,8.21
2023-02-12T15:37:46.645Z,8.03
2023-02-12T15:42:57.118Z,7.94
2023-02-12T15:48:18.555Z,7.96
2023-02-12T15:53:22.967Z,7.97
2023-02-12T15:58:30.746Z,7.93
2023-02-12T16:03:37.784Z,7.89
2023-02-12T16:08:45.779Z,7.90
2023-02-12T16:13:50.655Z,7.95
2023-02-12T16:19:26.208Z,7.96
2023-02-12T16:24:31.873Z,7.93
2023-02-12T16:29:36.820Z,7.97
2023-02-12T16:34:38.856Z,7.98
2023-02-12T16:40:14.282Z,8.08
2023-02-12T16:45:25.163Z,8.21
2023-02-12T16:50:29.009Z,8.19
2023-02-12T16:55:31.345Z,8.15
2023-02-12T17:00:32.877Z,8.14
2023-02-12T17:05:34.544Z,8.20
2023-02-12T17:10:35.983Z,8.09
2023-02-12T17:15:42.615Z,8.14
2023-02-12T17:20:47.783Z,8.10
2023-02-12T17:25:49.491Z,8.10
2023-02-12T17:30:52.530Z,8.01
2023-02-12T17:35:54.299Z,8.09
2023-02-12T17:40:56.227Z,8.09
2023-02-12T17:45:57.972Z,8.05
2023-02-12T17:50:59.716Z,8.02
2023-02-12T17:56:01.310Z,7.96
2023-02-12T18:01:07.411Z,7.93
2023-02-12T18:06:09.991Z,7.82
2023-02-12T18:11:11.592Z,7.84
2023-02-12T18:16:14.560Z,7.79
2023-02-12T18:21:16.738Z,7.73
2023-02-12T18:26:18.926Z,7.72
2023-02-12T18:31:21.156Z,7.70
2023-02-12T18:36:22.786Z,7.66
2023-02-12T18:41:27.327Z,7.57
2023-02-12T18:46:30.486Z,7.50
2023-02-12T18:51:32.105Z,7.55
2023-02-12T18:56:39.283Z,7.48
2023-02-12T19:01:41.326Z,7.44
2023-02-12T19:06:46.334Z,7.46
2023-02-12T19:11:50.359Z,7.50
2023-02-12T19:16:52.417Z,7.46
2023-02-12T19:21:53.924Z,7.47
2023-02-12T19:26:55.459Z,7.43
2023-02-12T19:31:57.055Z,7.44
2023-02-12T19:36:58.688Z,7.35
2023-02-12T19:42:00.184Z,7.38
2023-02-12T19:47:01.741Z,7.37
2023-02-12T19:52:03.350Z,7.39
2023-02-12T19:57:04.794Z,7.34
2023-02-12T20:02:06.593Z,7.33
2023-02-12T20:07:08.708Z,7.36
2023-02-12T20:12:10.237Z,7.31
2023-02-12T20:17:11.793Z,7.33
2023-02-12T20:22:13.224Z,7.34
2023-02-12T20:27:15.309Z,7.25
2023-02-12T20:32:16.881Z,7.23
2023-02-12T20:37:18.640Z,7.24
2023-02-12T20:42:20.141Z,7.26
2023-02-12T20:47:21.680Z,7.24
2023-02-12T20:52:24.449Z,7.23
2023-02-12T20:57:25.911Z,7.15
2023-02-12T21:02:27.859Z,7.12
2023-02-12T21:07:29.411Z,7.13
2023-02-12T21:12:30.935Z,7.23
2023-02-12T21:17:33.298Z,7.26
2023-02-12T21:22:35.717Z,7.25
2023-02-12T21:27:37.144Z,7.25
2023-02-12T21:32:38.729Z,7.27
2023-02-12T21:37:40.273Z,7.19
2023-02-12T21:42:41.696Z,7.16
2023-02-12T21:47:43.219Z,7.17
2023-02-12T21:52:44.784Z,7.04
2023-02-12T21:57:46.231Z,7.04
2023-02-12T22:02:48.064Z,7.21
2023-02-12T22:07:50.659Z,7.26
2023-02-12T22:12:52.221Z,7.15
2023-02-12T22:17:53.876Z,7.12
2023-02-12T22:22:55.548Z,7.14
2023-02-12T22:27:57.018Z,7.16
2023-02-12T22:32:58.605Z,7.18
2023-02-12T22:38:00.136Z,7.11
2023-02-12T22:43:01.608Z,7.10
2023-02-12T22:48:03.546Z,7.03
2023-02-12T22:53:05.353Z,7.04
2023-02-12T22:58:06.876Z,7.08
2023-02-12T23:03:08.481Z,7.04
2023-02-12T23:08:10.028Z,6.98
2023-02-12T23:13:18.574Z,7.05
2023-02-12T23:18:26.284Z,7.04
2023-02-12T23:23:28.190Z,7.02
2023-02-12T23:28:30.995Z,6.96
2023-02-12T23:33:32.598Z,6.95
2023-02-12T23:38:34.041Z,6.89
2023-02-12T23:43:35.615Z,6.97
2023-02-12T23:48:37.121Z,6.91
2023-02-12T23:53:38.641Z,6.98
2023-02-12T23:58:41.199Z,6.91
